createdAt,value
2022-07-28T00:01:13.066Z,2.00
2022-07-28T00:06:17.220Z,2.42
2022-07-28T00:11:20.272Z,2.22
2022-07-28T00:16:25.073Z,2.58
2022-07-28T00:21:28.153Z,2.40
2022-07-28T00:26:31.259Z,2.10
2022-07-28T00:31:35.823Z,2.00
2022-07-28T00:36:39.075Z,2.47
2022-07-28T00:41:42.818Z,2.35
2022-07-28T00:46:47.278Z,2.35
2022-07-28T00:51:50.537Z,2.17
2022-07-28T00:56:53.589Z,2.00
2022-07-28T01:01:58.874Z,2.35
2022-07-28T01:07:11.618Z,1.80
2022-07-28T01:12:24.530Z,2.53
2022-07-28T01:17:35.874Z,2.58
2022-07-28T01:22:44.440Z,3.22
2022-07-28T01:27:57.738Z,2.15
2022-07-28T01:33:04.671Z,3.10
2022-07-28T01:38:11.643Z,1.80
2022-07-28T01:43:20.407Z,2.63
2022-07-28T01:48:26.520Z,2.92
2022-07-28T01:53:32.171Z,2.60
2022-07-28T01:58:43.263Z,3.03
2022-07-28T02:03:48.580Z,2.25
2022-07-28T02:08:54.721Z,2.80
2022-07-28T02:13:58.829Z,2.38
2022-07-28T02:19:04.581Z,2.20
2022-07-28T02:24:09.202Z,2.33
2022-07-28T02:29:33.371Z,2.67
2022-07-28T02:34:40.068Z,2.33
2022-07-28T02:39:57.476Z,2.55
2022-07-28T02:45:06.935Z,1.92
2022-07-28T02:50:14.341Z,2.45
2022-07-28T02:55:18.466Z,2.67
2022-07-28T03:00:22.137Z,1.92
2022-07-28T03:05:28.805Z,2.35
2022-07-28T03:10:33.935Z,2.78
2022-07-28T03:15:40.241Z,2.42
2022-07-28T03:20:46.174Z,2.42
2022-07-28T03:25:51.753Z,2.72
2022-07-28T03:30:58.062Z,2.42
2022-07-28T03:36:08.753Z,2.40
2022-07-28T03:41:13.314Z,2.97
2022-07-28T03:46:16.458Z,2.05
2022-07-28T03:51:20.862Z,2.50
2022-07-28T03:56:24.269Z,2.70
2022-07-28T04:01:27.362Z,2.88
2022-07-28T04:06:31.902Z,2.80
2022-07-28T04:11:34.984Z,2.28
2022-07-28T04:16:38.138Z,2.47
2022-07-28T04:21:42.791Z,3.03
2022-07-28T04:26:45.861Z,2.80
2022-07-28T04:31:48.880Z,3.20
2022-07-28T04:36:53.362Z,3.38
2022-07-28T04:41:56.433Z,3.00
2022-07-28T04:46:59.669Z,3.08
2022-07-28T04:52:04.666Z,2.42
2022-07-28T04:57:12.707Z,4.28
2022-07-28T05:02:16.053Z,3.00
2022-07-28T05:07:21.546Z,2.53
2022-07-28T05:12:24.698Z,2.40
2022-07-28T05:17:28.975Z,2.08
2022-07-28T05:22:43.371Z,1.92
2022-07-28T05:27:47.174Z,1.45
2022-07-28T05:32:51.153Z,1.60
2022-07-28T05:37:56.263Z,1.55
2022-07-28T05:42:59.421Z,2.05
2022-07-28T05:48:02.568Z,2.00
2022-07-28T05:53:06.943Z,1.35
2022-07-28T05:58:10.172Z,1.38
2022-07-28T06:03:13.962Z,1.98
2022-07-28T06:08:18.697Z,1.30
2022-07-28T06:13:21.808Z,1.45
2022-07-28T06:18:25.438Z,1.60
2022-07-28T06:23:30.534Z,1.50
2022-07-28T06:28:33.606Z,1.67
2022-07-28T06:33:36.710Z,1.25
2022-07-28T06:38:41.166Z,1.92
2022-07-28T06:43:44.205Z,0.90
2022-07-28T06:48:47.366Z,1.42
2022-07-28T06:53:52.376Z,1.40
2022-07-28T06:58:56.255Z,1.35
2022-07-28T07:03:59.388Z,1.35
2022-07-28T07:09:03.999Z,1.15
2022-07-28T07:14:07.104Z,1.23
2022-07-28T07:19:15.428Z,1.52
2022-07-28T07:24:20.227Z,1.20
2022-07-28T07:29:25.782Z,1.60
2022-07-28T07:34:33.341Z,1.25
2022-07-28T07:39:37.790Z,1.02
2022-07-28T07:44:40.845Z,1.20
2022-07-28T07:49:46.620Z,1.40
2022-07-28T07:54:51.109Z,1.13
2022-07-28T07:59:54.175Z,1.40
2022-07-28T08:04:57.268Z,1.23
2022-07-28T08:10:01.843Z,1.52
2022-07-28T08:15:06.307Z,1.05
2022-07-28T08:20:10.456Z,1.00
2022-07-28T08:25:14.969Z,1.20
2022-07-28T08:30:23.073Z,1.17
2022-07-28T08:35:33.487Z,1.23
2022-07-28T08:40:41.825Z,1.40
2022-07-28T08:45:48.614Z,1.17
2022-07-28T08:50:53.890Z,1.40
2022-07-28T08:56:01.830Z,1.10
2022-07-28T09:01:08.444Z,1.08
2022-07-28T09:06:11.784Z,1.42
2022-07-28T09:11:16.223Z,1.20
2022-07-28T09:16:19.344Z,1.15
2022-07-28T09:21:22.520Z,1.67
2022-07-28T09:26:26.951Z,1.05
2022-07-28T09:31:30.713Z,1.10
2022-07-28T09:36:40.061Z,1.40
2022-07-28T09:41:49.645Z,1.15
2022-07-28T09:46:53.280Z,1.10
2022-07-28T09:52:01.322Z,1.17
2022-07-28T09:57:10.483Z,1.40
2022-07-28T10:02:14.336Z,1.50
2022-07-28T10:07:18.057Z,1.03
2022-07-28T10:12:24.778Z,1.60
2022-07-28T10:17:29.983Z,1.20
2022-07-28T10:22:38.270Z,1.25
2022-07-28T10:27:48.617Z,0.93
2022-07-28T10:32:54.395Z,1.20
2022-07-28T10:38:00.002Z,1.33
2022-07-28T10:43:05.774Z,1.35
2022-07-28T10:48:09.535Z,1.10
2022-07-28T10:53:25.227Z,1.23
2022-07-28T10:58:54.338Z,1.30
2022-07-28T11:03:57.513Z,1.05
2022-07-28T11:09:21.745Z,1.23
2022-07-28T11:14:39.410Z,0.90
2022-07-28T11:25:39.318Z,1.33
2022-07-28T12:15:17.284Z,0.75
2022-07-28T12:20:21.594Z,1.00
2022-07-28T12:25:25.969Z,1.33
2022-07-28T12:30:35.524Z,1.25
2022-07-28T12:35:39.042Z,1.05
2022-07-28T12:40:43.157Z,1.10
2022-07-28T12:45:48.511Z,1.20
2022-07-28T12:50:52.261Z,1.00
2022-07-28T12:56:01.718Z,0.80
2022-07-28T13:01:09.267Z,1.10
2022-07-28T13:06:13.585Z,1.23
2022-07-28T13:16:41.743Z,0.85
2022-07-28T13:21:58.572Z,1.15
2022-07-28T13:27:03.764Z,1.20
2022-07-28T13:32:08.577Z,1.17
2022-07-28T13:37:12.589Z,0.88
2022-07-28T13:42:15.722Z,1.17
2022-07-28T13:47:20.965Z,0.80
2022-07-28T13:52:32.763Z,1.08
2022-07-28T14:02:49.197Z,1.05
2022-07-28T14:07:52.601Z,1.00
2022-07-28T14:12:55.699Z,0.93
2022-07-28T14:18:00.156Z,1.67
2022-07-28T14:23:03.556Z,1.20
2022-07-28T14:28:06.670Z,1.40
2022-07-28T14:33:11.263Z,1.00
2022-07-28T14:38:51.834Z,1.10
2022-07-28T14:43:37.544Z,0.87
2022-07-28T14:48:41.990Z,1.17
2022-07-28T14:53:51.537Z,1.10
2022-07-28T14:58:55.326Z,0.93
2022-07-28T15:03:59.765Z,0.97
2022-07-28T15:09:02.879Z,1.10
2022-07-28T15:14:05.923Z,1.00
2022-07-28T15:19:10.887Z,1.00
2022-07-28T15:24:16.598Z,1.10
2022-07-28T15:29:21.611Z,0.90
2022-07-28T15:34:26.116Z,0.90
2022-07-28T15:39:30.999Z,1.10
2022-07-28T15:44:35.121Z,1.15
2022-07-28T15:49:39.488Z,0.93
2022-07-28T15:54:43.112Z,1.30
2022-07-28T15:59:49.337Z,0.80
2022-07-28T16:04:54.898Z,0.80
2022-07-28T16:09:57.978Z,1.13
2022-07-28T16:15:01.204Z,1.23
2022-07-28T16:20:10.359Z,1.10
2022-07-28T16:25:16.882Z,1.27
2022-07-28T16:30:20.446Z,1.42
2022-07-28T16:35:25.155Z,1.00
2022-07-28T16:40:30.153Z,1.13
2022-07-28T16:45:34.776Z,1.05
2022-07-28T16:50:39.273Z,0.80
2022-07-28T16:55:43.074Z,1.00
2022-07-28T17:00:46.213Z,1.07
2022-07-28T17:05:52.397Z,0.90
2022-07-28T17:10:56.664Z,1.10
2022-07-28T17:16:02.726Z,1.25
2022-07-28T17:21:07.425Z,1.40
2022-07-28T17:31:33.786Z,1.00
2022-07-28T17:36:41.317Z,1.20
2022-07-28T17:41:45.799Z,0.98
2022-07-28T17:46:49.611Z,1.67
2022-07-28T17:51:54.119Z,1.25
2022-07-28T17:56:57.406Z,1.13
2022-07-28T18:02:00.502Z,1.25
2022-07-28T18:07:05.135Z,1.20
2022-07-28T18:12:09.116Z,1.50
2022-07-28T18:17:12.295Z,1.30
2022-07-28T18:22:16.831Z,1.17
2022-07-28T18:27:19.880Z,1.10
2022-07-28T18:32:23.318Z,1.40
2022-07-28T18:37:27.840Z,2.20
2022-07-28T18:42:34.148Z,1.83
2022-07-28T18:47:46.332Z,1.38
2022-07-28T18:52:52.467Z,1.17
2022-07-28T18:57:55.540Z,1.30
2022-07-28T19:02:58.871Z,1.65
2022-07-28T19:08:03.422Z,1.38
2022-07-28T19:13:12.902Z,1.40
2022-07-28T19:18:16.427Z,1.10
2022-07-28T19:23:20.857Z,1.60
2022-07-28T19:28:24.490Z,1.47
2022-07-28T19:33:28.075Z,1.08
2022-07-28T19:38:32.534Z,1.35
2022-07-28T19:43:35.558Z,1.30
2022-07-28T19:48:39.272Z,1.40
2022-07-28T19:53:43.876Z,1.30
2022-07-28T20:04:03.000Z,1.30
2022-07-28T20:09:09.245Z,1.45
2022-07-28T20:14:12.559Z,1.37
2022-07-28T20:19:16.062Z,1.58
2022-07-28T20:24:21.033Z,1.35
2022-07-28T20:29:24.283Z,1.20
2022-07-28T20:34:30.414Z,1.17
2022-07-28T20:39:45.059Z,1.20
2022-07-28T20:49:52.374Z,1.52
2022-07-28T20:54:56.772Z,1.75
2022-07-28T20:59:59.971Z,1.60
2022-07-28T21:05:03.284Z,1.45
2022-07-28T21:10:09.534Z,1.30
2022-07-28T21:15:12.745Z,1.35
2022-07-28T21:20:16.032Z,1.63
2022-07-28T21:25:20.575Z,1.63
2022-07-28T21:30:27.651Z,1.40
2022-07-28T21:35:31.428Z,1.30
2022-07-28T21:40:39.857Z,1.55
2022-07-28T21:45:45.493Z,1.45
2022-07-28T21:50:48.897Z,1.92
2022-07-28T21:55:53.307Z,1.30
2022-07-28T22:01:02.243Z,1.63
2022-07-28T22:06:06.147Z,1.45
2022-07-28T22:11:10.554Z,1.70
2022-07-28T22:16:13.705Z,2.00
2022-07-28T22:21:16.968Z,1.65
2022-07-28T22:26:21.580Z,1.60
2022-07-28T22:31:25.031Z,1.70
2022-07-28T22:36:28.278Z,2.13
2022-07-28T22:41:32.827Z,1.73
2022-07-28T22:46:36.014Z,2.50
2022-07-28T22:51:39.174Z,2.05
2022-07-28T22:56:50.675Z,2.55
2022-07-28T23:01:53.880Z,2.57
2022-07-28T23:06:57.042Z,2.85
2022-07-28T23:12:01.807Z,3.00
2022-07-28T23:17:04.959Z,3.25
2022-07-28T23:22:08.820Z,2.58
2022-07-28T23:27:13.700Z,3.08
2022-07-28T23:32:17.316Z,2.90
2022-07-28T23:37:20.379Z,2.95
2022-07-28T23:42:24.884Z,3.33
2022-07-28T23:47:28.022Z,2.97
2022-07-28T23:52:31.117Z,2.70
2022-07-28T23:57:35.466Z,2.97
